Time;durP1;ratioP1;P1;durP2;ratioP2;P2;SDS_P1;SDS_P2;PMS_P1;PMS_P2;Temp;Humidity;BMP_temperature;BMP_pressure;BME280_temperature;BME280_humidity;BME280_pressure;Samples;Min_cycle;Max_cycle;Signal;HPM_P1;HPM_P2
2022/11/08 00:16:56;;;;;;;13.50;9.60;;;;;;;9.21;79.75;99936.30;209780;1299;141082;-69
2022/11/08 00:22:01;;;;;;;17.40;9.20;;;;;;;9.21;79.70;99937.41;209657;1300;139432;-69
2022/11/08 00:27:17;;;;;;;17.40;10.30;;;;;;;9.25;79.64;99937.59;209806;1297;140501;-69
2022/11/08 00:32:25;;;;;;;13.90;9.30;;;;;;;9.29;79.51;99938.23;209811;1295;141177;-69
2022/11/08 00:37:30;;;;;;;15.20;8.70;;;;;;;9.28;79.56;99936.05;209911;1304;138937;-69
2022/11/08 00:42:35;;;;;;;11.90;9.70;;;;;;;9.26;79.44;99937.94;209827;1297;139728;-68
2022/11/08 00:47:41;;;;;;;12.50;9.00;;;;;;;9.30;79.51;99940.73;209769;1300;141284;-68
2022/11/08 00:52:46;;;;;;;16.30;10.00;;;;;;;9.33;79.52;99940.61;209748;1296;139363;-69
2022/11/08 00:57:51;;;;;;;11.60;9.60;;;;;;;9.32;79.37;99935.38;209636;1298;140745;-68
2022/11/08 01:03:21;;;;;;;16.30;9.40;;;;;;;9.33;79.43;99937.75;210097;1296;139351;-69
2022/11/08 01:08:25;;;;;;;13.70;9.80;;;;;;;9.33;79.29;99939.14;209930;1302;139854;-68
2022/11/08 01:13:32;;;;;;;15.50;10.30;;;;;;;9.35;79.17;99940.84;207902;1305;140527;-68
2022/11/08 01:18:37;;;;;;;10.90;8.70;;;;;;;9.33;79.23;99935.41;206415;1300;138734;-68
2022/11/08 01:23:44;;;;;;;12.80;8.90;;;;;;;9.29;79.05;99933.33;209672;1303;140353;-68
2022/11/08 01:28:48;;;;;;;16.70;9.80;;;;;;;9.30;79.31;99936.91;209621;1298;140487;-69
2022/11/08 01:33:53;;;;;;;12.20;10.70;;;;;;;9.33;79.07;99939.14;209732;1302;141513;-68
2022/11/08 01:38:59;;;;;;;17.20;8.00;;;;;;;9.31;78.98;99939.86;207409;1304;139449;-69
2022/11/08 01:44:03;;;;;;;14.70;9.70;;;;;;;9.26;79.06;99935.73;206789;1291;139418;-69
2022/11/08 01:49:14;;;;;;;17.20;10.90;;;;;;;9.25;79.20;99931.16;209758;1300;141336;-69
2022/11/08 01:54:35;;;;;;;16.80;9.60;;;;;;;9.26;79.03;99931.35;208892;1304;140641;-69
2022/11/08 01:59:44;;;;;;;15.10;8.50;;;;;;;9.17;78.81;99928.38;209951;1297;140512;-69
2022/11/08 02:04:49;;;;;;;14.40;9.30;;;;;;;9.08;78.85;99928.23;209859;1299;141673;-69
2022/11/08 02:09:55;;;;;;;13.20;8.50;;;;;;;9.04;78.70;99926.96;209692;1299;141156;-69
2022/11/08 02:14:59;;;;;;;13.70;9.00;;;;;;;9.05;78.90;99922.65;209848;1304;139720;-69
2022/11/08 02:20:03;;;;;;;15.70;9.70;;;;;;;9.03;78.97;99921.73;209789;1299;139076;-69
2022/11/08 02:25:08;;;;;;;10.50;8.00;;;;;;;9.04;79.22;99926.88;209766;1297;139617;-69
2022/11/08 02:30:13;;;;;;;10.70;7.80;;;;;;;9.11;79.39;99926.09;209796;1303;140284;-69
2022/11/08 02:35:20;;;;;;;11.40;8.30;;;;;;;9.17;79.30;99920.09;209791;1298;140092;-69
2022/11/08 02:40:25;;;;;;;13.90;7.50;;;;;;;9.23;79.21;99919.77;209862;1295;139894;-69
2022/11/08 02:45:30;;;;;;;11.10;7.70;;;;;;;9.22;79.17;99917.52;209911;1295;139936;-68
2022/11/08 02:50:36;;;;;;;9.20;7.10;;;;;;;9.25;79.27;99916.27;209806;1303;140941;-68
2022/11/08 02:55:41;;;;;;;13.10;9.90;;;;;;;9.22;78.99;99906.88;209754;1297;139942;-69
2022/11/08 03:00:46;;;;;;;13.30;9.40;;;;;;;9.19;79.09;99909.45;209786;1297;139970;-68
2022/11/08 03:05:51;;;;;;;12.20;9.70;;;;;;;9.16;78.92;99917.98;209720;1299;140130;-69
2022/11/08 03:10:59;;;;;;;13.90;9.20;;;;;;;9.09;78.57;99923.89;209714;1298;140604;-68
2022/11/08 03:16:04;;;;;;;18.40;8.70;;;;;;;9.05;78.89;99929.41;209878;1300;140408;-68
2022/11/08 03:21:07;;;;;;;16.20;10.50;;;;;;;9.03;79.08;99932.21;208317;1297;141243;-68
2022/11/08 03:26:11;;;;;;;9.10;7.80;;;;;;;9.03;79.22;99932.17;207040;1296;140542;-69
2022/11/08 03:31:15;;;;;;;16.00;8.70;;;;;;;8.99;79.16;99929.83;209915;1300;139891;-69
2022/11/08 03:36:19;;;;;;;15.30;11.00;;;;;;;8.90;78.78;99930.01;208993;1299;139601;-68
2022/11/08 03:41:23;;;;;;;9.90;8.70;;;;;;;8.76;78.80;99928.95;207870;1302;142753;-68
2022/11/08 03:46:26;;;;;;;16.80;11.00;;;;;;;8.69;79.00;99937.38;207895;1299;140674;-68
2022/11/08 03:51:30;;;;;;;10.20;8.50;;;;;;;8.65;79.37;99937.49;206521;1305;140197;-68
2022/11/08 03:56:34;;;;;;;15.00;8.50;;;;;;;8.66;79.36;99933.00;206907;1297;139732;-69
2022/11/08 04:01:38;;;;;;;14.60;8.10;;;;;;;8.65;79.60;99935.66;209826;1296;140393;-69
2022/11/08 04:06:43;;;;;;;14.00;10.90;;;;;;;8.65;79.89;99934.27;209582;1300;139484;-69
2022/11/08 04:17:11;;;;;;;13.70;8.90;;;;;;;8.61;79.52;99932.01;209884;1300;233790;-69
2022/11/08 04:22:16;;;;;;;14.10;8.80;;;;;;;8.58;79.48;99933.27;209970;1303;139972;-69
2022/11/08 04:27:20;;;;;;;13.40;9.00;;;;;;;8.48;79.24;99934.02;209863;1290;140396;-68
2022/11/08 04:32:25;;;;;;;12.00;9.40;;;;;;;8.39;79.39;99938.11;209879;1295;138979;-69
2022/11/08 04:37:29;;;;;;;16.50;9.10;;;;;;;8.31;79.20;99933.73;209334;1295;691155;-69
2022/11/08 04:42:34;;;;;;;12.20;9.80;;;;;;;8.29;79.55;99928.13;209573;1303;140541;-69
2022/11/08 04:47:39;;;;;;;16.40;9.70;;;;;;;8.26;79.53;99933.42;209675;1299;140368;-69
2022/11/08 04:52:53;;;;;;;16.80;8.80;;;;;;;8.18;79.52;99934.14;210034;1303;139519;-69
2022/11/08 04:57:58;;;;;;;15.50;9.80;;;;;;;8.08;79.58;99932.48;209654;1291;140018;-69
2022/11/08 05:03:03;;;;;;;14.30;9.50;;;;;;;8.03;79.55;99932.14;206698;1297;140206;-68
2022/11/08 05:08:07;;;;;;;13.00;9.50;;;;;;;7.97;79.52;99934.41;209880;1302;140472;-69
2022/11/08 05:13:11;;;;;;;15.90;9.20;;;;;;;7.95;79.87;99934.77;209847;1303;140003;-69
2022/11/08 05:18:14;;;;;;;17.70;10.50;;;;;;;7.90;79.92;99940.11;209897;1301;139567;-69
2022/11/08 05:23:25;;;;;;;13.10;9.10;;;;;;;7.84;79.96;99945.81;208716;1299;139191;-67
2022/11/08 05:28:28;;;;;;;13.70;9.50;;;;;;;7.82;80.04;99945.40;208859;1294;140890;-70
2022/11/08 05:33:32;;;;;;;16.10;9.00;;;;;;;7.82;79.99;99943.83;210040;1290;140656;-67
2022/11/08 05:38:36;;;;;;;14.10;10.10;;;;;;;7.78;80.20;99943.30;209779;1303;141392;-69
2022/11/08 05:43:41;;;;;;;13.30;9.80;;;;;;;7.72;80.12;99947.12;209597;1302;141392;-69
2022/11/08 05:48:46;;;;;;;15.20;11.00;;;;;;;7.66;80.14;99949.77;209243;1296;140853;-68
2022/11/08 05:53:51;;;;;;;21.40;10.70;;;;;;;7.65;80.18;99958.45;209316;1301;139892;-66
2022/11/08 05:58:55;;;;;;;17.70;11.80;;;;;;;7.63;79.94;99949.37;209257;1303;140886;-66
2022/11/08 06:04:00;;;;;;;17.30;10.50;;;;;;;7.54;80.24;99954.76;209814;1303;139770;-66
2022/11/08 06:09:04;;;;;;;16.60;10.40;;;;;;;7.51;80.31;99957.09;209841;1303;141366;-68
2022/11/08 06:14:09;;;;;;;15.90;11.30;;;;;;;7.48;80.34;99955.87;208934;1297;139987;-66
2022/11/08 06:19:14;;;;;;;18.10;12.70;;;;;;;7.42;80.49;99955.84;209746;1298;141303;-68
2022/11/08 06:24:21;;;;;;;18.60;12.50;;;;;;;7.46;80.61;99961.34;209734;1303;140120;-67
2022/11/08 06:29:26;;;;;;;22.60;13.30;;;;;;;7.82;80.27;99961.65;209815;1299;141673;-70
2022/11/08 06:34:31;;;;;;;21.20;11.80;;;;;;;8.31;80.28;99964.10;209740;1304;140873;-69
2022/11/08 06:39:37;;;;;;;19.00;12.00;;;;;;;8.98;80.00;99958.55;209815;1305;140710;-68
2022/11/08 06:44:42;;;;;;;22.10;12.40;;;;;;;9.63;79.05;99959.75;209723;1298;141406;-68
2022/11/08 06:49:48;;;;;;;16.40;10.30;;;;;;;10.22;78.51;99961.53;209714;1295;144907;-67
2022/11/08 06:54:52;;;;;;;15.40;10.90;;;;;;;10.69;77.60;99960.48;209659;1298;140738;-67
2022/11/08 06:59:57;;;;;;;13.20;10.80;;;;;;;11.05;77.22;99959.61;209669;1303;139868;-68
2022/11/08 07:05:01;;;;;;;17.50;11.90;;;;;;;11.41;76.77;99983.80;209656;1299;141642;-69
2022/11/08 07:10:09;;;;;;;23.20;11.20;;;;;;;11.72;76.05;99982.63;209837;1293;139846;-68
2022/11/08 07:15:14;;;;;;;14.80;11.10;;;;;;;11.78;75.26;99978.67;207419;1290;140826;-67
2022/11/08 07:20:21;;;;;;;15.10;10.20;;;;;;;11.74;74.99;99976.23;209236;1300;140715;-68
2022/11/08 07:25:27;;;;;;;16.10;10.00;;;;;;;11.60;74.66;99979.09;209676;1295;140297;-68
2022/11/08 07:30:32;;;;;;;12.50;9.60;;;;;;;11.32;74.27;99982.69;209706;1296;140228;-67
2022/11/08 07:35:37;;;;;;;11.50;9.90;;;;;;;11.02;74.08;99982.24;209729;1299;140750;-67
2022/11/08 07:40:41;;;;;;;10.70;7.40;;;;;;;10.84;74.37;99987.63;209729;1290;141974;-68
2022/11/08 07:45:47;;;;;;;15.60;10.30;;;;;;;10.77;74.72;99988.89;208975;1296;142315;-68
2022/11/08 07:50:51;;;;;;;13.10;10.50;;;;;;;10.79;75.01;99984.83;209140;1299;141795;-67
2022/11/08 07:55:57;;;;;;;15.60;9.40;;;;;;;10.72;74.92;99980.19;206908;1290;141772;-67
2022/11/08 08:01:05;;;;;;;12.10;8.50;;;;;;;10.66;75.23;99981.86;209670;1298;141493;-70
2022/11/08 08:06:10;;;;;;;17.10;9.70;;;;;;;10.67;75.41;99984.88;209767;1299;140806;-70
2022/11/08 08:11:15;;;;;;;12.50;9.10;;;;;;;10.76;75.49;99979.14;209696;1290;140472;-70
2022/11/08 08:16:20;;;;;;;8.90;7.60;;;;;;;10.89;75.48;99977.83;209793;1297;141496;-70
2022/11/08 08:21:24;;;;;;;14.20;8.50;;;;;;;11.00;75.46;99976.90;209883;1299;140830;-70
2022/11/08 08:26:28;;;;;;;15.70;10.50;;;;;;;11.09;75.42;99974.12;209678;1300;140379;-71
2022/11/08 08:31:33;;;;;;;9.80;8.70;;;;;;;11.29;75.73;99977.49;209868;1300;141448;-69
2022/11/08 08:36:38;;;;;;;15.60;8.60;;;;;;;11.50;75.74;99986.14;209889;1299;140496;-69
2022/11/08 08:41:43;;;;;;;9.40;6.10;;;;;;;11.69;75.39;99985.89;209879;1297;139359;-69
2022/11/08 08:46:49;;;;;;;14.70;9.50;;;;;;;11.79;75.15;99982.71;209963;1299;141104;-68
2022/11/08 08:51:56;;;;;;;11.90;8.70;;;;;;;11.94;75.06;99973.05;209767;1290;140139;-67
2022/11/08 08:57:00;;;;;;;11.60;8.00;;;;;;;12.08;75.07;99975.52;209899;1298;140340;-66
2022/11/08 09:02:05;;;;;;;10.30;7.30;;;;;;;12.23;74.92;99967.19;209869;1298;139983;-67
2022/11/08 09:07:09;;;;;;;13.50;7.70;;;;;;;12.36;74.65;99967.76;209790;1297;140033;-66
2022/11/08 09:12:15;;;;;;;10.10;7.70;;;;;;;12.59;74.45;99967.23;209885;1304;139789;-67
2022/11/08 09:17:19;;;;;;;8.70;6.50;;;;;;;12.81;74.50;99971.39;208384;1299;139160;-69
2022/11/08 09:22:23;;;;;;;7.70;5.50;;;;;;;13.01;74.46;99979.48;206746;1290;138981;-68
2022/11/08 09:27:29;;;;;;;14.00;8.30;;;;;;;13.18;74.06;99981.83;206701;1290;139872;-69
2022/11/08 09:32:33;;;;;;;8.70;6.80;;;;;;;13.37;73.82;99976.27;209876;1303;142289;-69
2022/11/08 09:37:58;;;;;;;12.80;7.10;;;;;;;13.55;73.35;99973.39;208533;1290;139926;-68
2022/11/08 09:43:32;;;;;;;8.30;5.80;;;;;;;13.73;73.52;99969.13;206581;1290;139713;-69
2022/11/08 09:48:41;;;;;;;11.40;7.60;;;;;;;13.86;72.62;99966.00;208295;1283;140595;-68
2022/11/08 09:53:58;;;;;;;8.00;5.70;;;;;;;13.99;72.50;99968.73;208637;1291;140958;-68
2022/11/08 09:59:19;;;;;;;6.80;6.20;;;;;;;14.19;72.24;99965.14;206859;1293;139761;-70
2022/11/08 10:04:28;;;;;;;7.90;5.60;;;;;;;14.35;71.96;99960.75;209771;1283;140066;-70
2022/11/08 10:10:14;;;;;;;7.50;6.20;;;;;;;14.48;71.53;99963.47;209732;1299;139870;-71
2022/11/08 10:15:59;;;;;;;6.90;5.50;;;;;;;14.64;71.13;99962.33;209692;1299;142223;-68
2022/11/08 10:21:12;;;;;;;7.20;5.80;;;;;;;14.74;70.50;99954.45;209307;1300;140027;-68
2022/11/08 10:26:19;;;;;;;8.70;5.60;;;;;;;14.82;70.44;99958.27;209686;1299;140092;-70
2022/11/08 10:31:34;;;;;;;6.90;5.50;;;;;;;14.95;70.13;99947.64;209823;1304;141162;-67
2022/11/08 10:36:42;;;;;;;8.70;6.00;;;;;;;15.05;69.77;99939.73;209696;1299;139588;-69
2022/11/08 10:41:55;;;;;;;7.60;6.50;;;;;;;15.12;69.27;99941.36;209872;1304;140306;-69
2022/11/08 10:47:05;;;;;;;6.40;5.30;;;;;;;15.12;69.28;99935.88;209789;1298;139549;-71
2022/11/08 10:52:38;;;;;;;8.90;5.10;;;;;;;15.25;69.10;99932.11;209502;1300;139745;-71
2022/11/08 10:57:44;;;;;;;7.80;5.80;;;;;;;15.32;68.54;99930.55;210032;1296;140557;-68
2022/11/08 11:02:52;;;;;;;6.50;5.20;;;;;;;15.32;68.29;99921.91;209772;1299;141572;-69
2022/11/08 11:08:00;;;;;;;6.10;4.90;;;;;;;15.40;68.30;99916.36;209926;1295;139444;-70
2022/11/08 11:13:13;;;;;;;9.00;5.10;;;;;;;15.43;67.96;99915.84;208933;1289;139499;-71
2022/11/08 11:18:20;;;;;;;8.80;5.50;;;;;;;15.48;67.82;99917.59;207902;1291;139980;-68
2022/11/08 11:23:35;;;;;;;8.70;4.80;;;;;;;15.58;67.88;99915.09;206793;1281;139335;-67
2022/11/08 11:28:58;;;;;;;5.10;4.60;;;;;;;15.65;67.67;99910.73;206605;1290;140452;-68
2022/11/08 11:34:17;;;;;;;6.00;4.10;;;;;;;15.71;67.57;99912.21;209968;1303;139351;-68
2022/11/08 11:39:39;;;;;;;7.30;5.00;;;;;;;15.70;67.25;99902.64;210031;1292;140340;-70
2022/11/08 11:45:02;;;;;;;7.50;4.70;;;;;;;15.72;67.24;99908.67;209298;1297;140800;-67
2022/11/08 11:50:31;;;;;;;6.20;4.70;;;;;;;15.76;67.07;99898.91;209692;1298;140065;-69
2022/11/08 11:55:44;;;;;;;14.90;5.10;;;;;;;15.86;66.94;99890.98;208017;1297;150217;-68
2022/11/08 12:01:08;;;;;;;4.60;3.50;;;;;;;15.94;66.67;99896.67;208219;1293;140264;-66
2022/11/08 12:06:43;;;;;;;5.50;3.80;;;;;;;16.01;66.48;99893.47;208874;1297;140299;-65
2022/11/08 12:12:02;;;;;;;4.20;3.80;;;;;;;16.03;66.25;99883.04;206311;1297;140747;-68
2022/11/08 12:17:23;;;;;;;4.50;3.20;;;;;;;16.08;66.29;99879.98;206538;1299;139293;-69
2022/11/08 12:22:33;;;;;;;3.30;3.00;;;;;;;16.10;66.11;99884.24;206559;1283;223508;-65
2022/11/08 12:27:51;;;;;;;4.90;3.40;;;;;;;15.99;65.83;99879.43;209533;1302;139149;-66
2022/11/08 12:33:25;;;;;;;4.00;3.60;;;;;;;15.85;65.96;99873.56;209837;1295;140485;-70
2022/11/08 12:38:46;;;;;;;5.40;3.80;;;;;;;15.79;66.03;99873.17;209807;1292;139061;-69
2022/11/08 12:44:15;;;;;;;5.30;2.60;;;;;;;15.80;65.95;99874.14;209784;1288;139564;-69
2022/11/08 12:49:39;;;;;;;3.90;2.90;;;;;;;15.81;65.71;99875.86;209938;1296;141054;-69
2022/11/08 12:55:08;;;;;;;4.90;3.10;;;;;;;15.88;65.59;99874.21;209790;1292;140777;-70
2022/11/08 13:00:17;;;;;;;3.90;2.30;;;;;;;15.91;65.49;99878.40;209899;1299;141581;-69
2022/11/08 13:05:33;;;;;;;6.90;3.00;;;;;;;15.90;65.52;99879.58;209853;1298;233296;-71
2022/11/08 13:10:56;;;;;;;2.20;2.00;;;;;;;15.82;65.21;99868.28;209817;1300;204458;-67
2022/11/08 13:16:15;;;;;;;2.50;2.30;;;;;;;15.78;65.39;99865.16;209922;1299;141118;-68
2022/11/08 13:21:27;;;;;;;6.30;2.40;;;;;;;15.73;65.36;99864.33;209925;1295;140322;-68
2022/11/08 13:26:42;;;;;;;5.20;2.20;;;;;;;15.70;65.31;99862.44;209012;1298;142281;-67
2022/11/08 13:31:58;;;;;;;12.80;5.10;;;;;;;15.65;65.39;99858.50;208652;1297;140275;-68
2022/11/08 13:37:33;;;;;;;4.10;2.00;;;;;;;15.61;65.41;99861.40;207045;1291;140122;-68
2022/11/08 13:42:40;;;;;;;2.60;2.40;;;;;;;15.55;65.29;99857.98;209252;1296;140835;-70
2022/11/08 13:47:47;;;;;;;2.40;2.20;;;;;;;15.42;65.10;99855.83;209847;1299;225438;-72
2022/11/08 13:53:33;;;;;;;3.00;2.60;;;;;;;15.36;65.20;99855.10;209423;1298;246222;-71
2022/11/08 13:58:40;;;;;;;6.00;3.60;;;;;;;15.32;65.47;99854.75;206151;1289;140043;-69
2022/11/08 14:03:54;;;;;;;4.20;2.10;;;;;;;15.24;65.35;99848.77;206657;1290;140340;-69
2022/11/08 14:09:07;;;;;;;7.70;2.70;;;;;;;15.06;65.32;99840.27;207180;1289;139537;-67
2022/11/08 14:14:26;;;;;;;3.70;3.00;;;;;;;14.92;65.48;99842.23;209477;1297;140170;-70
2022/11/08 14:19:36;;;;;;;3.10;1.60;;;;;;;14.78;65.79;99847.04;209790;1290;139810;-71
2022/11/08 14:24:41;;;;;;;3.10;2.50;;;;;;;14.60;65.79;99845.11;209651;1294;140104;-73
2022/11/08 14:29:59;;;;;;;3.30;2.60;;;;;;;14.39;65.92;99837.00;209600;1296;140407;-68
2022/11/08 14:35:24;;;;;;;4.30;2.50;;;;;;;14.31;66.23;99837.14;209792;1273;141397;-69
2022/11/08 14:40:28;;;;;;;7.10;2.80;;;;;;;14.20;66.54;99837.90;209605;1297;140735;-68
2022/11/08 14:45:32;;;;;;;4.70;3.40;;;;;;;14.03;66.66;99835.24;209806;1299;139555;-71
2022/11/08 14:50:36;;;;;;;10.00;3.50;;;;;;;13.79;66.45;99831.74;209771;1292;140518;-69
2022/11/08 14:55:44;;;;;;;6.50;3.30;;;;;;;13.60;66.92;99830.01;209812;1290;140366;-69
2022/11/08 15:00:48;;;;;;;5.90;3.50;;;;;;;13.42;67.04;99829.02;209741;1298;141262;-67
2022/11/08 15:06:00;;;;;;;4.30;3.00;;;;;;;13.29;67.35;99834.42;209772;1290;142863;-70
2022/11/08 15:11:08;;;;;;;5.70;2.80;;;;;;;13.10;67.41;99836.05;209905;1288;140798;-66
2022/11/08 15:16:12;;;;;;;4.90;3.00;;;;;;;12.92;67.62;99831.85;209949;1298;139450;-67
2022/11/08 15:21:30;;;;;;;7.50;3.70;;;;;;;12.75;67.69;99825.32;210081;1297;138966;-66
2022/11/08 15:26:34;;;;;;;9.70;4.30;;;;;;;12.56;67.58;99822.84;208745;1289;139175;-67
2022/11/08 15:31:46;;;;;;;6.00;5.00;;;;;;;12.38;67.89;99824.92;208320;1299;141370;-67
2022/11/08 15:36:50;;;;;;;8.00;3.70;;;;;;;12.18;67.98;99822.58;208479;1299;139810;-68
2022/11/08 15:42:01;;;;;;;7.20;3.50;;;;;;;11.93;67.71;99820.34;206669;1290;140313;-67
2022/11/08 15:47:36;;;;;;;4.10;3.30;;;;;;;11.60;67.53;99823.27;209776;1283;140269;-71
2022/11/08 15:52:41;;;;;;;12.70;7.20;;;;;;;11.11;67.80;99818.52;209907;1300;139746;-67
2022/11/08 15:57:46;;;;;;;11.80;7.60;;;;;;;10.76;68.40;99823.86;209179;1297;141160;-66
2022/11/08 16:02:51;;;;;;;16.10;11.00;;;;;;;10.49;68.80;99826.73;209589;1300;141889;-71
2022/11/08 16:07:55;;;;;;;12.60;8.20;;;;;;;10.39;69.28;99824.27;209571;1300;140837;-65
2022/11/08 16:12:59;;;;;;;8.20;7.00;;;;;;;10.35;69.56;99822.11;209775;1300;140398;-66
2022/11/08 16:18:03;;;;;;;9.10;6.10;;;;;;;10.16;69.59;99816.39;209708;1295;139913;-69
2022/11/08 16:23:10;;;;;;;19.60;13.60;;;;;;;9.94;69.65;99816.06;209844;1288;139674;-68
2022/11/08 16:28:28;;;;;;;12.00;7.30;;;;;;;9.71;69.82;99820.17;209760;1299;140075;-68
2022/11/08 16:33:34;;;;;;;12.00;9.90;;;;;;;9.46;70.02;99824.98;209961;1296;141029;-68
2022/11/08 16:38:38;;;;;;;22.20;16.40;;;;;;;9.33;70.49;99828.18;209575;1297;499112;-68
2022/11/08 16:43:42;;;;;;;19.90;14.30;;;;;;;9.29;71.09;99832.29;209981;1296;139962;-69
2022/11/08 16:48:54;;;;;;;17.20;13.00;;;;;;;9.23;71.18;99826.84;209873;1304;141243;-68
2022/11/08 16:54:01;;;;;;;17.00;11.20;;;;;;;9.18;71.41;99830.73;209773;1303;141253;-66
2022/11/08 16:59:05;;;;;;;22.80;10.20;;;;;;;9.22;71.83;99832.40;209918;1299;141191;-68
2022/11/08 17:04:10;;;;;;;20.60;10.20;;;;;;;9.26;72.14;99834.44;209899;1292;140056;-66
2022/11/08 17:09:14;;;;;;;22.10;12.20;;;;;;;9.30;72.07;99833.27;209965;1304;140760;-64
2022/11/08 17:14:23;;;;;;;36.80;17.30;;;;;;;9.22;72.23;99831.70;209887;1297;139242;-66
2022/11/08 17:19:29;;;;;;;20.70;13.80;;;;;;;9.24;72.60;99833.73;209824;1299;140860;-68
2022/11/08 17:24:33;;;;;;;25.10;13.30;;;;;;;9.27;72.57;99838.20;209647;1299;140627;-67
2022/11/08 17:29:37;;;;;;;23.20;13.70;;;;;;;9.25;72.36;99837.48;209942;1273;140281;-65
2022/11/08 17:34:41;;;;;;;18.70;10.10;;;;;;;9.22;72.59;99838.02;210022;1290;139336;-68
2022/11/08 17:39:45;;;;;;;16.60;10.20;;;;;;;9.11;72.35;99838.08;210007;1299;140977;-70
2022/11/08 17:44:49;;;;;;;14.70;10.50;;;;;;;9.00;72.48;99835.70;209625;1296;139663;-70
2022/11/08 17:49:53;;;;;;;26.10;15.90;;;;;;;8.90;72.65;99838.30;209733;1300;140718;-67
2022/11/08 17:54:56;;;;;;;20.70;12.70;;;;;;;8.80;72.62;99837.11;209689;1297;142480;-72
2022/11/08 18:00:01;;;;;;;27.30;16.50;;;;;;;8.71;72.88;99838.46;210065;1296;141275;-69
2022/11/08 18:05:05;;;;;;;24.70;15.50;;;;;;;8.60;73.07;99836.23;208266;1295;139663;-70
2022/11/08 18:10:08;;;;;;;18.20;15.40;;;;;;;8.53;73.12;99837.67;209832;1296;139943;-68
2022/11/08 18:15:12;;;;;;;19.40;12.10;;;;;;;8.55;73.73;99841.67;209767;1299;140415;-70
2022/11/08 18:20:15;;;;;;;19.20;13.60;;;;;;;8.51;73.35;99836.17;209762;1304;140882;-72
2022/11/08 18:25:19;;;;;;;23.40;14.60;;;;;;;8.37;73.46;99830.85;209879;1301;141170;-74
2022/11/08 18:30:27;;;;;;;20.20;13.60;;;;;;;8.29;73.92;99832.48;209658;1298;140699;-68
2022/11/08 18:35:40;;;;;;;19.30;12.40;;;;;;;8.24;74.09;99825.72;209815;1292;221357;-74
2022/11/08 18:40:48;;;;;;;21.50;13.20;;;;;;;8.22;74.47;99822.05;209648;1299;140654;-67
2022/11/08 18:45:51;;;;;;;18.90;14.20;;;;;;;8.30;74.64;99820.02;209901;1298;140162;-66
2022/11/08 18:50:54;;;;;;;20.70;12.30;;;;;;;8.37;75.00;99816.92;209714;1294;140438;-69
2022/11/08 18:55:58;;;;;;;23.10;14.60;;;;;;;8.36;74.70;99812.05;209847;1293;139894;-68
2022/11/08 19:01:02;;;;;;;19.90;12.70;;;;;;;8.27;75.02;99812.40;209878;1295;139931;-68
2022/11/08 19:06:06;;;;;;;21.80;14.00;;;;;;;8.25;75.24;99812.74;209992;1297;139661;-67
2022/11/08 19:11:11;;;;;;;21.80;14.10;;;;;;;8.28;75.69;99820.84;209730;1288;140292;-84
2022/11/08 19:16:18;;;;;;;21.80;11.80;;;;;;;8.35;76.07;99819.76;209718;1301;140058;-67
2022/11/08 19:21:26;;;;;;;21.60;11.30;;;;;;;8.40;76.23;99824.82;209983;1297;142434;-70
2022/11/08 19:26:31;;;;;;;17.20;12.10;;;;;;;8.44;76.35;99825.86;209850;1300;223897;-70
2022/11/08 19:31:35;;;;;;;23.70;14.70;;;;;;;8.47;76.57;99819.77;209567;1297;141063;-71
2022/11/08 19:36:42;;;;;;;24.90;14.80;;;;;;;8.49;76.39;99811.60;209586;1294;140604;-70
2022/11/08 19:41:46;;;;;;;17.40;13.20;;;;;;;8.49;76.42;99812.77;209715;1297;141414;-67
2022/11/08 19:46:50;;;;;;;19.20;12.90;;;;;;;8.50;76.69;99812.08;209554;1299;141410;-70
2022/11/08 19:51:54;;;;;;;22.60;11.90;;;;;;;8.50;76.92;99818.29;209627;1299;140204;-70
2022/11/08 19:56:58;;;;;;;25.40;15.00;;;;;;;8.48;76.76;99815.66;208954;1296;139618;-71
2022/11/08 20:02:08;;;;;;;16.40;11.00;;;;;;;8.48;76.70;99817.57;209555;1299;139624;-71
2022/11/08 20:07:13;;;;;;;20.10;11.70;;;;;;;8.45;76.94;99817.02;207764;1290;140013;-70
2022/11/08 20:12:21;;;;;;;22.10;13.90;;;;;;;8.44;77.02;99813.27;209835;1303;220646;-70
2022/11/08 20:17:25;;;;;;;23.60;14.70;;;;;;;8.44;76.95;99810.45;207610;1305;141039;-71
2022/11/08 20:22:28;;;;;;;22.80;15.40;;;;;;;8.45;77.24;99805.29;207122;1286;141297;-71
2022/11/08 20:27:33;;;;;;;25.40;14.50;;;;;;;8.45;77.31;99800.55;209667;1299;140620;-72
2022/11/08 20:32:37;;;;;;;20.80;12.30;;;;;;;8.47;77.44;99800.94;209578;1304;141069;-71
2022/11/08 20:37:45;;;;;;;20.80;13.50;;;;;;;8.50;77.59;99790.45;209744;1297;140986;-71
2022/11/08 20:42:49;;;;;;;21.80;13.30;;;;;;;8.51;77.63;99794.98;209671;1303;140636;-69
2022/11/08 20:47:53;;;;;;;25.80;14.20;;;;;;;8.52;77.77;99795.55;207862;1290;140573;-71
2022/11/08 20:52:56;;;;;;;26.60;13.80;;;;;;;8.56;77.48;99794.44;209857;1295;140624;-70
2022/11/08 20:58:00;;;;;;;26.70;15.00;;;;;;;8.55;77.60;99797.27;209823;1297;152964;-71
2022/11/08 21:03:05;;;;;;;18.80;13.20;;;;;;;8.54;77.78;99795.16;209863;1303;140662;-69
2022/11/08 21:08:08;;;;;;;25.00;14.30;;;;;;;8.55;77.79;99788.90;209749;1295;140733;-70
2022/11/08 21:13:35;;;;;;;26.30;14.70;;;;;;;8.59;77.85;99791.94;209856;1305;141218;-71
2022/11/08 21:18:41;;;;;;;16.10;11.50;;;;;;;8.65;78.03;99795.84;209702;1298;140926;-70
2022/11/08 21:23:47;;;;;;;18.10;11.50;;;;;;;8.64;77.80;99792.02;209791;1299;140675;-70
2022/11/08 21:28:54;;;;;;;24.80;15.90;;;;;;;8.61;77.84;99794.85;209950;1300;139649;-69
2022/11/08 21:33:58;;;;;;;20.50;13.20;;;;;;;8.61;77.66;99795.66;209810;1301;140538;-71
2022/11/08 21:39:02;;;;;;;22.70;14.50;;;;;;;8.60;77.67;99795.89;209827;1301;141790;-71
2022/11/08 21:44:06;;;;;;;28.30;15.80;;;;;;;8.58;77.92;99794.96;207833;1297;139802;-69
2022/11/08 21:49:12;;;;;;;29.40;16.30;;;;;;;8.57;77.96;99791.05;209413;1301;140402;-67
2022/11/08 21:54:15;;;;;;;25.70;14.10;;;;;;;8.56;77.88;99786.48;209666;1303;141091;-68
2022/11/08 21:59:19;;;;;;;27.50;15.80;;;;;;;8.55;78.07;99785.23;209784;1295;140183;-68
2022/11/08 22:04:22;;;;;;;23.20;15.00;;;;;;;8.53;78.16;99779.10;209766;1302;139721;-67
2022/11/08 22:09:26;;;;;;;28.20;15.60;;;;;;;8.49;78.11;99777.59;209824;1301;139659;-68
2022/11/08 22:14:30;;;;;;;21.90;15.00;;;;;;;8.46;78.12;99778.99;208825;1303;140353;-68
2022/11/08 22:19:33;;;;;;;23.90;15.20;;;;;;;8.45;78.11;99776.14;207225;1302;142082;-70
2022/11/08 22:24:38;;;;;;;24.30;13.70;;;;;;;8.40;78.46;99776.11;209797;1303;140204;-68
2022/11/08 22:29:41;;;;;;;23.20;14.40;;;;;;;8.34;78.17;99782.05;209806;1282;152132;-71
2022/11/08 22:34:45;;;;;;;24.00;15.10;;;;;;;8.34;78.28;99779.48;209751;1298;141260;-69
2022/11/08 22:39:49;;;;;;;30.40;18.20;;;;;;;8.36;78.55;99782.31;209624;1296;140883;-69
2022/11/08 22:44:53;;;;;;;29.50;18.30;;;;;;;8.37;78.35;99782.34;209749;1298;141279;-68
2022/11/08 22:49:58;;;;;;;27.10;16.30;;;;;;;8.37;78.56;99782.64;210003;1302;140328;-69
2022/11/08 22:55:02;;;;;;;32.20;17.90;;;;;;;8.35;78.46;99784.29;209966;1302;140990;-69
2022/11/08 23:00:08;;;;;;;28.30;18.20;;;;;;;8.32;78.49;99790.72;209965;1303;140577;-68
2022/11/08 23:05:12;;;;;;;29.30;18.50;;;;;;;8.27;78.28;99794.02;209731;1296;140484;-68
2022/11/08 23:10:16;;;;;;;28.80;19.10;;;;;;;8.19;78.46;99788.22;209759;1302;141167;-68
2022/11/08 23:26:05;;;;;;;32.10;19.60;;;;;;;8.06;78.45;99775.94;209741;1302;141231;-69
2022/11/08 23:36:34;;;;;;;30.00;20.70;;;;;;;7.90;78.79;99773.35;209940;1295;140972;-68
2022/11/08 23:47:20;;;;;;;33.00;20.10;;;;;;;7.83;78.95;99773.97;208789;1300;223125;-68
2022/11/08 23:52:24;;;;;;;28.00;18.70;;;;;;;7.83;79.30;99772.74;209399;1304;140635;-68
2022/11/08 23:57:30;;;;;;;28.60;17.40;;;;;;;7.81;79.14;99770.19;207388;1300;141092;-68
